createdAt,value
2023-05-19T00:00:47.827Z,50.866772
2023-05-19T00:01:46.640Z,50.866737
2023-05-19T00:02:46.536Z,50.866703
2023-05-19T00:03:45.617Z,50.866787
2023-05-19T00:04:45.620Z,50.866806
2023-05-19T00:05:45.690Z,50.866802
2023-05-19T00:06:45.603Z,50.866779
2023-05-19T00:07:45.601Z,50.866848
2023-05-19T00:08:45.588Z,50.866940
2023-05-19T00:09:45.592Z,50.866924
2023-05-19T00:10:45.568Z,50.866928
2023-05-19T00:11:45.564Z,50.866844
2023-05-19T00:12:45.565Z,50.866985
2023-05-19T00:13:45.523Z,50.866875
2023-05-19T00:14:45.526Z,50.866756
2023-05-19T00:15:45.546Z,50.866833
2023-05-19T00:16:45.530Z,50.866913
2023-05-19T00:17:46.515Z,50.866905
2023-05-19T00:18:46.464Z,50.866898
2023-05-19T00:19:45.484Z,50.866993
2023-05-19T00:27:46.063Z,50.866653
2023-05-19T00:28:47.101Z,50.866611
2023-05-19T00:29:46.063Z,50.866531
2023-05-19T00:30:46.043Z,50.866581
2023-05-19T00:31:46.053Z,50.866753
2023-05-19T00:32:46.082Z,50.866688
2023-05-19T00:33:46.677Z,50.866692
2023-05-19T00:34:46.002Z,50.866611
2023-05-19T00:35:46.019Z,50.866570
2023-05-19T00:36:46.009Z,50.866516
2023-05-19T00:37:45.997Z,50.866631
2023-05-19T00:38:45.987Z,50.866611
2023-05-19T00:39:45.973Z,50.866688
2023-05-19T00:40:45.969Z,50.866669
2023-05-19T00:41:45.946Z,50.866730
2023-05-19T00:42:45.963Z,50.866718
2023-05-19T00:43:45.938Z,50.866642
2023-05-19T00:44:45.966Z,50.866703
2023-05-19T00:45:46.685Z,50.866829
2023-05-19T00:46:45.943Z,50.866779
2023-05-19T00:47:45.944Z,50.866646
2023-05-19T00:48:45.948Z,50.866512
2023-05-19T00:49:45.895Z,50.866398
2023-05-19T00:50:45.903Z,50.866470
2023-05-19T00:51:45.881Z,50.866550
2023-05-19T00:52:45.875Z,50.866619
2023-05-19T00:53:45.866Z,50.866623
2023-05-19T00:54:45.870Z,50.866684
2023-05-19T00:55:45.894Z,50.866589
2023-05-19T00:56:45.857Z,50.866592
2023-05-19T00:57:45.850Z,50.866600
2023-05-19T00:58:45.817Z,50.866585
2023-05-19T00:59:45.817Z,50.866611
2023-05-19T01:00:45.916Z,50.866661
2023-05-19T01:01:45.836Z,50.866611
2023-05-19T01:02:45.859Z,50.866627
2023-05-19T01:03:45.833Z,50.866631
2023-05-19T01:04:45.777Z,50.866657
2023-05-19T01:05:45.781Z,50.866615
2023-05-19T01:06:45.769Z,50.866653
2023-05-19T01:07:45.782Z,50.866722
2023-05-19T01:08:45.759Z,50.866718
2023-05-19T01:09:45.749Z,50.866798
2023-05-19T01:10:45.736Z,50.866772
2023-05-19T01:11:45.734Z,50.866768
2023-05-19T01:12:45.732Z,50.866726
2023-05-19T01:13:46.676Z,50.866787
2023-05-19T01:14:45.712Z,50.866798
2023-05-19T01:15:45.699Z,50.866768
2023-05-19T01:16:45.726Z,50.866745
2023-05-19T01:17:45.723Z,50.866791
2023-05-19T01:18:45.706Z,50.866756
2023-05-19T01:19:45.665Z,50.866756
2023-05-19T01:20:45.726Z,50.866714
2023-05-19T01:21:45.655Z,50.866711
2023-05-19T01:22:45.637Z,50.866795
2023-05-19T01:23:45.649Z,50.866776
2023-05-19T01:24:45.627Z,50.866741
2023-05-19T01:25:45.672Z,50.866806
2023-05-19T01:26:45.609Z,50.866817
2023-05-19T01:27:45.613Z,50.866829
2023-05-19T01:28:45.617Z,50.866844
2023-05-19T01:29:45.603Z,50.866879
2023-05-19T01:30:45.609Z,50.866837
2023-05-19T01:31:45.611Z,50.866688
2023-05-19T01:32:45.624Z,50.866734
2023-05-19T01:33:45.584Z,50.866745
2023-05-19T01:34:45.560Z,50.866684
2023-05-19T01:35:45.539Z,50.866753
2023-05-19T01:36:45.531Z,50.866776
2023-05-19T01:37:45.547Z,50.866802
2023-05-19T01:38:45.536Z,50.866825
2023-05-19T01:39:45.555Z,50.866806
2023-05-19T01:40:45.520Z,50.866844
2023-05-19T01:41:46.196Z,50.866795
2023-05-19T01:42:45.528Z,50.866722
2023-05-19T01:43:45.495Z,50.866714
2023-05-19T01:44:45.489Z,50.866722
2023-05-19T01:45:45.502Z,50.866707
2023-05-19T01:46:45.466Z,50.866703
2023-05-19T01:47:45.523Z,50.866776
2023-05-19T01:48:45.449Z,50.866795
2023-05-19T01:49:45.447Z,50.866707
2023-05-19T01:50:45.431Z,50.866711
2023-05-19T01:51:45.439Z,50.866756
2023-05-19T01:52:45.413Z,50.866806
2023-05-19T01:53:45.454Z,50.866779
2023-05-19T01:54:46.184Z,50.866909
2023-05-19T01:55:45.408Z,50.866806
2023-05-19T01:56:45.389Z,50.866714
2023-05-19T01:57:45.380Z,50.866695
2023-05-19T01:58:45.370Z,50.866745
2023-05-19T01:59:45.379Z,50.866737
2023-05-19T02:00:45.357Z,50.866730
2023-05-19T02:01:45.447Z,50.866692
2023-05-19T02:02:45.342Z,50.866722
2023-05-19T02:03:45.330Z,50.866734
2023-05-19T02:04:45.399Z,50.866772
2023-05-19T02:05:45.303Z,50.866802
2023-05-19T02:06:45.302Z,50.866779
2023-05-19T02:07:45.305Z,50.866768
2023-05-19T02:08:45.297Z,50.866772
2023-05-19T02:09:45.296Z,50.866791
2023-05-19T02:10:45.276Z,50.866772
2023-05-19T02:11:45.275Z,50.866730
2023-05-19T02:12:45.256Z,50.866760
2023-05-19T02:13:45.254Z,50.866760
2023-05-19T02:14:46.244Z,50.866726
2023-05-19T02:15:45.252Z,50.866741
2023-05-19T02:16:45.263Z,50.866764
2023-05-19T02:17:45.333Z,50.866772
2023-05-19T02:18:45.355Z,50.866768
2023-05-19T02:19:45.196Z,50.866753
2023-05-19T02:20:45.207Z,50.866734
2023-05-19T02:21:45.185Z,50.866714
2023-05-19T02:22:45.190Z,50.866722
2023-05-19T02:23:45.175Z,50.866692
2023-05-19T02:24:45.166Z,50.866699
2023-05-19T02:25:45.178Z,50.866703
2023-05-19T02:26:45.147Z,50.866718
2023-05-19T02:27:45.147Z,50.866730
2023-05-19T02:28:45.127Z,50.866718
2023-05-19T02:29:45.132Z,50.866718
2023-05-19T02:30:45.121Z,50.866718
2023-05-19T02:31:45.186Z,50.866726
2023-05-19T02:32:45.138Z,50.866711
2023-05-19T02:33:45.131Z,50.866722
2023-05-19T02:34:45.782Z,50.866714
2023-05-19T02:35:45.082Z,50.866718
2023-05-19T02:36:45.070Z,50.866695
2023-05-19T02:37:45.089Z,50.866703
2023-05-19T02:38:45.048Z,50.866711
2023-05-19T02:39:45.054Z,50.866741
2023-05-19T02:40:45.045Z,50.866737
2023-05-19T02:41:46.032Z,50.866745
2023-05-19T02:42:45.042Z,50.866692
2023-05-19T02:43:45.032Z,50.866695
2023-05-19T02:44:45.009Z,50.866676
2023-05-19T02:45:45.008Z,50.866718
2023-05-19T02:46:45.081Z,50.866734
2023-05-19T02:47:45.022Z,50.866745
2023-05-19T02:48:44.984Z,50.866722
2023-05-19T02:49:44.971Z,50.866695
2023-05-19T02:50:44.962Z,50.866722
2023-05-19T02:51:45.028Z,50.866695
2023-05-19T02:52:46.742Z,50.866711
2023-05-19T02:53:44.923Z,50.866707
2023-05-19T02:54:45.786Z,50.866718
2023-05-19T02:55:44.946Z,50.866764
2023-05-19T02:56:44.929Z,50.866726
2023-05-19T02:57:44.894Z,50.866734
2023-05-19T02:58:44.901Z,50.866737
2023-05-19T02:59:44.903Z,50.866722
2023-05-19T03:00:44.871Z,50.866734
2023-05-19T03:01:44.958Z,50.866734
2023-05-19T03:02:44.912Z,50.866764
2023-05-19T03:03:44.969Z,50.866745
2023-05-19T03:04:44.845Z,50.866749
2023-05-19T03:05:44.829Z,50.866760
2023-05-19T03:06:44.824Z,50.866741
2023-05-19T03:07:44.826Z,50.866730
2023-05-19T03:08:44.808Z,50.866714
2023-05-19T03:09:44.814Z,50.866711
2023-05-19T03:10:45.775Z,50.866711
2023-05-19T03:11:45.709Z,50.866722
2023-05-19T03:12:44.801Z,50.866730
2023-05-19T03:13:44.770Z,50.866714
2023-05-19T03:14:44.766Z,50.866730
2023-05-19T03:15:44.742Z,50.866726
2023-05-19T03:16:44.905Z,50.866711
2023-05-19T03:17:44.865Z,50.866737
2023-05-19T03:18:44.734Z,50.866745
2023-05-19T03:19:44.721Z,50.866730
2023-05-19T03:20:45.305Z,50.866745
2023-05-19T03:21:44.709Z,50.866753
2023-05-19T03:22:44.720Z,50.866714
2023-05-19T03:23:44.705Z,50.866673
2023-05-19T03:24:44.686Z,50.866745
2023-05-19T03:25:44.683Z,50.866741
2023-05-19T03:26:44.666Z,50.866703
2023-05-19T03:27:44.708Z,50.866726
2023-05-19T03:28:44.653Z,50.866783
2023-05-19T03:29:44.641Z,50.866776
2023-05-19T03:30:44.656Z,50.866730
2023-05-19T03:31:44.662Z,50.866680
2023-05-19T03:32:44.712Z,50.866714
2023-05-19T03:33:44.677Z,50.866730
2023-05-19T03:34:44.637Z,50.866737
2023-05-19T03:35:44.621Z,50.866714
2023-05-19T03:36:44.588Z,50.866764
2023-05-19T03:37:44.586Z,50.866722
2023-05-19T03:38:44.579Z,50.866734
2023-05-19T03:39:44.575Z,50.866756
2023-05-19T03:40:44.563Z,50.866787
2023-05-19T03:41:44.576Z,50.866764
2023-05-19T03:42:44.566Z,50.866688
2023-05-19T03:43:44.549Z,50.866722
2023-05-19T03:44:44.550Z,50.866741
2023-05-19T03:45:44.613Z,50.866726
2023-05-19T03:46:44.557Z,50.866722
2023-05-19T03:47:44.577Z,50.866749
2023-05-19T03:48:44.509Z,50.866745
2023-05-19T03:49:44.527Z,50.866718
2023-05-19T03:50:44.497Z,50.866707
2023-05-19T03:51:44.483Z,50.866707
2023-05-19T03:52:44.482Z,50.866756
2023-05-19T03:53:44.460Z,50.866768
2023-05-19T03:54:44.469Z,50.866734
2023-05-19T03:55:44.473Z,50.866741
2023-05-19T03:56:44.456Z,50.866741
2023-05-19T03:57:44.501Z,50.866734
2023-05-19T03:58:44.497Z,50.866730
2023-05-19T03:59:44.414Z,50.866703
2023-05-19T04:00:44.415Z,50.866730
2023-05-19T04:01:44.423Z,50.866726
2023-05-19T04:02:44.542Z,50.866783
2023-05-19T04:03:44.446Z,50.866669
2023-05-19T04:04:44.438Z,50.866619
2023-05-19T04:05:44.393Z,50.866665
2023-05-19T04:06:45.213Z,50.866749
2023-05-19T04:07:44.386Z,50.866764
2023-05-19T04:08:44.364Z,50.866730
2023-05-19T04:09:44.372Z,50.866604
2023-05-19T04:10:44.353Z,50.866463
2023-05-19T04:11:44.341Z,50.866199
2023-05-19T04:12:44.318Z,50.866352
2023-05-19T04:13:45.200Z,50.866440
2023-05-19T04:14:44.306Z,50.866516
2023-05-19T04:15:44.312Z,50.866810
2023-05-19T04:16:44.312Z,50.866928
2023-05-19T04:17:44.368Z,50.866798
2023-05-19T04:18:44.797Z,50.866749
2023-05-19T04:19:44.273Z,50.866821
2023-05-19T04:20:44.274Z,50.866802
2023-05-19T04:21:44.286Z,50.866760
2023-05-19T04:22:44.229Z,50.866734
2023-05-19T04:23:44.274Z,50.866795
2023-05-19T04:24:44.268Z,50.866772
2023-05-19T04:25:44.213Z,50.866714
2023-05-19T04:26:44.200Z,50.866798
2023-05-19T04:27:44.237Z,50.866764
2023-05-19T04:28:44.189Z,50.866688
2023-05-19T04:29:44.190Z,50.866619
2023-05-19T04:30:44.176Z,50.866760
2023-05-19T04:31:44.347Z,50.866890
2023-05-19T04:32:44.234Z,50.866756
2023-05-19T04:33:44.162Z,50.866703
2023-05-19T04:34:44.172Z,50.866772
2023-05-19T04:35:44.173Z,50.866631
2023-05-19T04:36:44.148Z,50.866756
2023-05-19T04:37:44.121Z,50.866695
2023-05-19T04:38:44.109Z,50.866749
2023-05-19T04:39:44.132Z,50.866730
2023-05-19T04:40:44.125Z,50.866768
2023-05-19T04:41:44.099Z,50.866779
2023-05-19T04:42:44.133Z,50.866787
2023-05-19T04:43:44.076Z,50.866768
2023-05-19T04:44:44.065Z,50.866760
2023-05-19T04:45:44.065Z,50.866760
2023-05-19T04:46:44.074Z,50.866783
2023-05-19T04:47:44.105Z,50.866772
2023-05-19T04:48:44.032Z,50.866764
2023-05-19T04:49:44.023Z,50.866779
2023-05-19T04:50:44.023Z,50.866776
2023-05-19T04:51:44.027Z,50.866711
2023-05-19T04:52:44.070Z,50.866695
2023-05-19T04:53:44.004Z,50.866730
2023-05-19T04:55:17.259Z,50.866711
2023-05-19T04:55:43.981Z,50.866730
2023-05-19T04:56:43.972Z,50.866726
2023-05-19T04:57:43.961Z,50.866764
2023-05-19T04:58:43.952Z,50.866810
2023-05-19T04:59:43.956Z,50.866798
2023-05-19T05:00:43.961Z,50.866779
2023-05-19T05:01:44.018Z,50.866783
2023-05-19T05:02:44.007Z,50.866760
2023-05-19T05:03:43.984Z,50.866730
2023-05-19T05:04:43.917Z,50.866734
2023-05-19T05:05:43.891Z,50.866680
2023-05-19T05:06:43.902Z,50.866688
2023-05-19T05:07:43.905Z,50.866741
2023-05-19T05:08:43.872Z,50.866749
2023-05-19T05:09:43.868Z,50.866760
2023-05-19T05:10:43.846Z,50.866657
2023-05-19T05:11:43.854Z,50.866840
2023-05-19T05:12:43.838Z,50.866840
2023-05-19T05:13:43.842Z,50.866879
2023-05-19T05:14:43.850Z,50.866711
2023-05-19T05:15:43.833Z,50.866699
2023-05-19T05:16:43.926Z,50.866772
2023-05-19T05:17:43.881Z,50.866730
2023-05-19T05:18:44.905Z,50.866753
2023-05-19T05:19:44.815Z,50.866699
2023-05-19T05:20:43.782Z,50.866650
2023-05-19T05:21:43.805Z,50.866730
2023-05-19T05:22:43.754Z,50.866673
2023-05-19T05:23:43.755Z,50.866669
2023-05-19T05:24:43.748Z,50.866676
2023-05-19T05:25:43.751Z,50.866634
2023-05-19T05:26:43.734Z,50.866699
2023-05-19T05:27:43.726Z,50.866684
2023-05-19T05:28:43.727Z,50.866680
2023-05-19T05:29:43.702Z,50.866718
2023-05-19T05:30:43.731Z,50.866749
2023-05-19T05:31:43.702Z,50.866783
2023-05-19T05:32:43.722Z,50.866734
2023-05-19T05:33:43.726Z,50.866760
2023-05-19T05:34:43.673Z,50.866726
2023-05-19T05:35:43.666Z,50.866879
2023-05-19T05:36:43.675Z,50.866760
2023-05-19T05:37:43.652Z,50.866722
2023-05-19T05:38:43.633Z,50.866730
2023-05-19T05:39:43.633Z,50.866776
2023-05-19T05:40:43.645Z,50.866829
2023-05-19T05:41:43.631Z,50.866768
2023-05-19T05:42:43.629Z,50.866741
2023-05-19T05:43:43.611Z,50.866726
2023-05-19T05:44:43.589Z,50.866776
2023-05-19T05:45:43.640Z,50.866726
2023-05-19T05:46:43.569Z,50.866688
2023-05-19T05:47:43.582Z,50.866734
2023-05-19T05:48:43.611Z,50.866760
2023-05-19T05:49:43.550Z,50.866745
2023-05-19T05:50:43.578Z,50.866714
2023-05-19T05:51:54.320Z,50.866707
2023-05-19T05:52:45.544Z,50.866669
2023-05-19T05:53:43.537Z,50.866783
2023-05-19T05:54:44.266Z,50.866650
2023-05-19T05:55:43.512Z,50.866695
2023-05-19T05:56:43.496Z,50.866737
2023-05-19T05:57:43.503Z,50.866772
2023-05-19T05:58:43.511Z,50.866776
2023-05-19T05:59:43.487Z,50.866737
2023-05-19T06:00:44.362Z,50.866688
2023-05-19T06:01:43.462Z,50.866699
2023-05-19T06:02:43.572Z,50.866737
2023-05-19T06:03:44.482Z,50.866749
2023-05-19T06:04:43.468Z,50.866753
2023-05-19T06:05:43.500Z,50.866764
2023-05-19T06:06:43.444Z,50.866703
2023-05-19T06:07:43.431Z,50.866692
2023-05-19T06:08:43.418Z,50.866707
2023-05-19T06:09:43.402Z,50.866718
2023-05-19T06:10:45.159Z,50.866741
2023-05-19T06:11:43.394Z,50.866787
2023-05-19T06:12:43.402Z,50.866814
2023-05-19T06:13:43.377Z,50.866791
2023-05-19T06:14:43.415Z,50.866772
2023-05-19T06:15:44.332Z,50.866722
2023-05-19T06:16:43.356Z,50.866714
2023-05-19T06:17:43.363Z,50.866699
2023-05-19T06:18:43.387Z,50.866753
2023-05-19T06:19:43.348Z,50.866772
2023-05-19T06:20:43.352Z,50.866749
2023-05-19T06:21:43.327Z,50.866730
2023-05-19T06:22:43.306Z,50.866734
2023-05-19T06:23:43.306Z,50.866734
2023-05-19T06:24:43.291Z,50.866692
2023-05-19T06:25:44.934Z,50.866684
2023-05-19T06:26:43.371Z,50.866737
2023-05-19T06:27:44.866Z,50.866718
2023-05-19T06:28:43.256Z,50.866722
2023-05-19T06:29:43.354Z,50.866776
2023-05-19T06:30:43.243Z,50.866913
2023-05-19T06:31:43.337Z,50.866791
2023-05-19T06:32:43.267Z,50.866776
2023-05-19T06:33:43.299Z,50.866810
2023-05-19T06:34:43.254Z,50.866764
2023-05-19T06:35:43.198Z,50.866722
2023-05-19T06:36:43.190Z,50.866722
2023-05-19T06:37:43.179Z,50.866734
2023-05-19T06:38:43.214Z,50.866772
2023-05-19T06:39:43.157Z,50.866737
2023-05-19T06:40:43.174Z,50.866699
2023-05-19T06:41:44.881Z,50.866737
2023-05-19T06:42:43.144Z,50.866707
2023-05-19T06:43:43.143Z,50.866760
2023-05-19T06:44:43.129Z,50.866745
2023-05-19T06:45:43.135Z,50.866673
2023-05-19T06:46:43.158Z,50.866726
2023-05-19T06:47:43.132Z,50.866737
2023-05-19T06:48:43.106Z,50.866745
2023-05-19T06:49:43.873Z,50.866776
2023-05-19T06:50:43.394Z,50.866779
2023-05-19T06:51:43.140Z,50.866749
2023-05-19T06:52:43.060Z,50.866699
2023-05-19T06:53:43.068Z,50.866684
2023-05-19T06:54:43.068Z,50.866737
2023-05-19T06:55:57.444Z,50.866722
2023-05-19T06:56:45.057Z,50.866703
2023-05-19T06:57:43.035Z,50.866730
2023-05-19T06:58:43.081Z,50.866726
2023-05-19T06:59:43.011Z,50.866604
2023-05-19T07:00:44.969Z,50.866646
2023-05-19T07:01:43.037Z,50.866741
2023-05-19T07:02:43.062Z,50.866806
2023-05-19T07:03:43.111Z,50.866772
2023-05-19T07:04:43.205Z,50.866783
2023-05-19T07:05:42.962Z,50.866859
2023-05-19T07:06:42.973Z,50.866814
2023-05-19T07:07:43.056Z,50.866852
2023-05-19T07:08:43.005Z,50.866798
2023-05-19T07:09:42.945Z,50.866783
2023-05-19T07:10:42.944Z,50.866753
2023-05-19T07:11:42.920Z,50.866779
2023-05-19T07:12:42.920Z,50.866772
2023-05-19T07:13:42.887Z,50.866749
2023-05-19T07:14:42.891Z,50.866787
2023-05-19T07:15:42.912Z,50.866718
2023-05-19T07:16:42.971Z,50.866692
2023-05-19T07:17:42.969Z,50.866642
2023-05-19T07:18:42.940Z,50.866692
2023-05-19T07:19:42.864Z,50.866756
2023-05-19T07:20:42.921Z,50.866669
2023-05-19T07:21:42.843Z,50.866661
2023-05-19T07:22:42.838Z,50.866673
2023-05-19T07:23:42.848Z,50.866753
2023-05-19T07:24:42.831Z,50.866756
2023-05-19T07:25:42.814Z,50.866783
2023-05-19T07:26:42.840Z,50.866760
2023-05-19T07:27:44.387Z,50.866749
2023-05-19T07:28:42.818Z,50.866768
2023-05-19T07:29:42.814Z,50.866741
2023-05-19T07:30:42.790Z,50.866756
2023-05-19T07:31:42.873Z,50.866764
2023-05-19T07:32:42.774Z,50.866734
2023-05-19T07:33:42.761Z,50.866741
2023-05-19T07:34:42.763Z,50.866753
2023-05-19T07:35:42.760Z,50.866714
2023-05-19T07:36:44.302Z,50.866692
2023-05-19T07:37:42.727Z,50.866695
2023-05-19T07:38:42.757Z,50.866718
2023-05-19T07:39:42.729Z,50.866840
2023-05-19T07:40:42.728Z,50.866749
2023-05-19T07:41:42.706Z,50.866737
2023-05-19T07:42:42.674Z,50.866741
2023-05-19T07:43:42.675Z,50.866699
2023-05-19T07:44:42.674Z,50.866726
2023-05-19T07:45:42.676Z,50.866726
2023-05-19T07:46:42.690Z,50.866806
2023-05-19T07:47:42.679Z,50.866825
2023-05-19T07:48:42.681Z,50.866833
2023-05-19T07:49:42.644Z,50.866806
2023-05-19T07:50:42.620Z,50.866741
2023-05-19T07:51:42.611Z,50.866688
2023-05-19T07:52:42.598Z,50.866726
2023-05-19T07:53:42.929Z,50.866745
2023-05-19T07:54:42.573Z,50.866749
2023-05-19T07:55:43.587Z,50.866806
2023-05-19T07:56:44.312Z,50.866833
2023-05-19T07:57:42.565Z,50.866806
2023-05-19T07:58:42.555Z,50.866821
2023-05-19T07:59:42.558Z,50.866817
2023-05-19T08:00:42.574Z,50.866810
2023-05-19T08:01:42.545Z,50.866787
2023-05-19T08:02:43.437Z,50.866760
2023-05-19T08:03:43.503Z,50.866768
2023-05-19T08:04:43.360Z,50.866806
2023-05-19T08:05:43.398Z,50.866802
2023-05-19T08:06:42.505Z,50.866776
2023-05-19T08:07:42.513Z,50.866756
2023-05-19T08:08:43.423Z,50.866787
2023-05-19T08:09:44.478Z,50.866730
2023-05-19T08:10:42.462Z,50.866760
2023-05-19T08:11:42.472Z,50.866772
2023-05-19T08:12:42.453Z,50.866753
2023-05-19T08:13:42.451Z,50.866749
2023-05-19T08:14:42.478Z,50.866730
2023-05-19T08:15:42.489Z,50.866749
2023-05-19T08:16:43.429Z,50.866772
2023-05-19T08:17:42.450Z,50.866783
2023-05-19T08:18:42.428Z,50.866764
2023-05-19T08:19:42.402Z,50.866802
2023-05-19T08:20:42.401Z,50.866726
2023-05-19T08:21:42.379Z,50.866741
2023-05-19T08:22:42.387Z,50.866722
2023-05-19T08:23:42.917Z,50.866722
2023-05-19T08:24:42.379Z,50.866772
2023-05-19T08:25:43.351Z,50.866714
2023-05-19T08:26:42.359Z,50.866714
2023-05-19T08:27:42.337Z,50.866753
2023-05-19T08:28:42.317Z,50.866703
2023-05-19T08:29:42.327Z,50.866680
2023-05-19T08:30:42.337Z,50.866703
2023-05-19T08:31:43.363Z,50.866741
2023-05-19T08:32:42.339Z,50.866726
2023-05-19T08:33:42.302Z,50.866722
2023-05-19T08:34:42.877Z,50.866734
2023-05-19T08:35:42.284Z,50.866718
2023-05-19T08:36:42.271Z,50.866726
2023-05-19T08:37:42.408Z,50.866714
2023-05-19T08:38:42.264Z,50.866722
2023-05-19T08:39:42.259Z,50.866722
2023-05-19T08:40:42.249Z,50.866776
2023-05-19T08:41:42.226Z,50.866772
2023-05-19T08:42:42.246Z,50.866753
2023-05-19T08:43:42.921Z,50.866730
2023-05-19T08:44:43.267Z,50.866726
2023-05-19T08:45:42.285Z,50.866768
2023-05-19T08:46:42.314Z,50.866726
2023-05-19T08:47:42.218Z,50.866657
2023-05-19T08:48:42.190Z,50.866722
2023-05-19T08:49:42.166Z,50.866772
2023-05-19T08:50:42.174Z,50.866718
2023-05-19T08:51:42.179Z,50.866726
2023-05-19T08:52:42.166Z,50.866772
2023-05-19T08:53:42.236Z,50.866795
2023-05-19T08:54:42.127Z,50.866779
2023-05-19T08:55:42.136Z,50.866737
2023-05-19T08:56:42.110Z,50.866745
2023-05-19T08:57:42.117Z,50.866680
2023-05-19T08:58:42.093Z,50.866730
2023-05-19T08:59:42.101Z,50.866756
2023-05-19T09:00:42.114Z,50.866726
2023-05-19T09:01:42.879Z,50.866680
2023-05-19T09:02:50.603Z,50.866695
2023-05-19T09:03:44.099Z,50.866718
2023-05-19T09:04:43.076Z,50.866684
2023-05-19T09:05:42.059Z,50.866699
2023-05-19T09:06:43.037Z,50.866692
2023-05-19T09:07:42.063Z,50.866737
2023-05-19T09:08:42.029Z,50.866718
2023-05-19T09:09:43.018Z,50.866650
2023-05-19T09:10:41.994Z,50.866714
2023-05-19T09:11:41.997Z,50.866650
2023-05-19T09:12:41.994Z,50.866688
2023-05-19T09:13:41.987Z,50.866699
2023-05-19T09:14:41.996Z,50.866707
2023-05-19T09:15:41.974Z,50.866711
2023-05-19T09:16:42.589Z,50.866764
2023-05-19T09:17:42.992Z,50.866714
2023-05-19T09:18:41.982Z,50.866726
2023-05-19T09:19:41.927Z,50.866718
2023-05-19T09:20:41.957Z,50.866657
2023-05-19T09:21:42.115Z,50.866692
2023-05-19T09:22:41.922Z,50.866673
2023-05-19T09:23:41.921Z,50.866783
2023-05-19T09:24:42.857Z,50.866817
2023-05-19T09:25:41.891Z,50.866791
2023-05-19T09:26:41.884Z,50.866756
2023-05-19T09:27:41.880Z,50.866722
2023-05-19T09:28:41.944Z,50.866737
2023-05-19T09:29:41.855Z,50.866779
2023-05-19T09:30:41.867Z,50.866787
2023-05-19T09:31:41.858Z,50.866745
2023-05-19T09:32:41.888Z,50.866722
2023-05-19T09:33:45.209Z,50.866745
2023-05-19T09:34:42.865Z,50.866726
2023-05-19T09:35:41.876Z,50.866879
2023-05-19T09:36:41.799Z,50.866760
2023-05-19T09:37:42.449Z,50.866875
2023-05-19T09:38:41.779Z,50.866741
2023-05-19T09:39:41.766Z,50.866756
2023-05-19T09:40:42.770Z,50.866634
2023-05-19T09:41:43.459Z,50.866894
2023-05-19T09:42:41.774Z,50.866829
2023-05-19T09:43:41.740Z,50.866821
2023-05-19T09:44:41.740Z,50.866913
2023-05-19T09:45:41.772Z,50.866909
2023-05-19T09:46:41.864Z,50.866817
2023-05-19T09:47:41.765Z,50.866779
2023-05-19T09:48:42.389Z,50.866764
2023-05-19T09:49:41.729Z,50.866817
2023-05-19T09:50:41.683Z,50.866913
2023-05-19T09:51:41.679Z,50.866879
2023-05-19T09:52:41.667Z,50.866791
2023-05-19T09:53:41.669Z,50.866814
2023-05-19T09:54:41.664Z,50.866898
2023-05-19T09:55:41.642Z,50.866989
2023-05-19T09:56:41.655Z,50.866947
2023-05-19T09:57:41.783Z,50.866783
2023-05-19T09:58:41.672Z,50.866928
2023-05-19T09:59:41.617Z,50.866787
2023-05-19T10:00:41.610Z,50.866867
2023-05-19T10:01:41.637Z,50.866936
2023-05-19T10:02:41.675Z,50.866837
2023-05-19T10:03:42.589Z,50.866787
2023-05-19T21:22:54.945Z,50.866711
2023-05-19T21:23:54.973Z,50.866848
2023-05-19T21:24:54.968Z,50.867264
2023-05-19T21:25:54.931Z,50.867432
2023-05-19T21:26:54.922Z,50.868004
2023-05-19T21:27:54.936Z,50.867458
2023-05-19T21:28:54.910Z,50.866913
2023-05-19T21:29:54.891Z,50.866753
2023-05-19T21:30:54.900Z,50.866695
2023-05-19T21:31:54.887Z,50.866680
2023-05-19T21:32:54.972Z,50.866722
2023-05-19T21:33:54.870Z,50.866844
2023-05-19T21:34:54.839Z,50.866863
2023-05-19T21:35:54.830Z,50.866856
2023-05-19T21:36:54.832Z,50.866844
2023-05-19T21:37:54.824Z,50.866840
2023-05-19T21:38:54.808Z,50.866825
2023-05-19T21:39:54.801Z,50.866905
2023-05-19T21:40:54.794Z,50.866928
2023-05-19T21:41:54.784Z,50.866985
2023-05-19T21:42:54.764Z,50.866920
2023-05-19T21:43:54.780Z,50.866890
2023-05-19T21:44:54.749Z,50.866875
2023-05-19T21:45:54.742Z,50.866886
2023-05-19T21:46:54.770Z,50.866924
2023-05-19T21:47:54.764Z,50.867016
2023-05-19T21:48:54.733Z,50.866947
2023-05-19T21:49:54.725Z,50.866997
2023-05-19T21:50:54.718Z,50.866966
2023-05-19T21:51:54.738Z,50.866901
2023-05-19T21:52:54.702Z,50.866905
2023-05-19T21:53:54.789Z,50.866871
2023-05-19T21:54:54.677Z,50.866879
2023-05-19T21:55:54.663Z,50.866814
2023-05-19T21:56:54.648Z,50.866798
2023-05-19T21:57:55.718Z,50.866726
2023-05-19T21:58:55.637Z,50.866734
2023-05-19T21:59:54.637Z,50.866627
2023-05-19T22:00:54.644Z,50.866592
2023-05-19T22:01:55.700Z,50.866604
2023-05-19T22:02:54.687Z,50.866638
2023-05-19T22:03:54.669Z,50.866627
2023-05-19T22:04:54.596Z,50.866737
2023-05-19T22:05:54.613Z,50.866821
2023-05-19T22:06:54.591Z,50.866795
2023-05-19T22:07:54.579Z,50.866661
2023-05-19T22:08:55.232Z,50.866592
2023-05-19T22:09:54.591Z,50.866547
2023-05-19T22:10:54.538Z,50.866692
2023-05-19T22:11:54.565Z,50.866760
2023-05-19T22:12:54.561Z,50.866695
2023-05-19T22:13:54.522Z,50.866665
2023-05-19T22:14:54.510Z,50.866707
2023-05-19T22:15:54.535Z,50.866741
2023-05-19T22:16:54.543Z,50.866745
2023-05-19T22:17:54.497Z,50.866692
2023-05-19T22:18:54.508Z,50.866726
2023-05-19T22:19:54.473Z,50.866722
2023-05-19T22:20:54.475Z,50.866692
2023-05-19T22:22:02.007Z,50.866688
2023-05-19T22:22:56.690Z,50.866753
2023-05-19T22:23:54.457Z,50.866756
2023-05-19T22:24:54.553Z,50.866722
2023-05-19T22:25:55.369Z,50.866753
2023-05-19T22:26:54.440Z,50.866722
2023-05-19T22:27:54.435Z,50.866737
2023-05-19T22:28:54.438Z,50.866734
2023-05-19T22:29:54.419Z,50.866734
2023-05-19T22:30:54.499Z,50.866707
2023-05-19T22:31:54.389Z,50.866722
2023-05-19T22:32:54.494Z,50.866741
2023-05-19T22:33:54.419Z,50.866714
2023-05-19T22:34:54.449Z,50.866726
2023-05-19T22:35:55.284Z,50.866753
2023-05-19T22:36:55.307Z,50.866707
2023-05-19T22:37:54.337Z,50.866749
2023-05-19T22:38:54.328Z,50.866726
2023-05-19T22:39:54.330Z,50.866722
2023-05-19T22:40:54.313Z,50.866741
2023-05-19T22:41:55.282Z,50.866707
2023-05-19T22:42:54.310Z,50.866734
2023-05-19T22:43:54.299Z,50.866714
2023-05-19T22:44:54.277Z,50.866741
2023-05-19T22:45:54.282Z,50.866737
2023-05-19T22:46:55.139Z,50.866726
2023-05-19T22:47:54.320Z,50.866753
2023-05-19T22:48:54.252Z,50.866745
2023-05-19T22:49:57.121Z,50.866764